createdAt,value
2023-01-29T00:01:43.497Z,5.55
2023-01-29T00:04:10.713Z,6.05
2023-01-29T00:06:37.909Z,6.28
2023-01-29T00:09:11.295Z,6.82
2023-01-29T00:11:38.441Z,6.43
2023-01-29T00:14:12.479Z,6.80
2023-01-29T00:16:46.252Z,6.95
2023-01-29T00:19:20.361Z,6.85
2023-01-29T00:21:47.497Z,6.15
2023-01-29T00:24:14.709Z,6.30
2023-01-29T00:26:49.363Z,6.45
2023-01-29T00:29:17.888Z,6.43
2023-01-29T00:31:45.587Z,7.22
2023-01-29T00:34:19.324Z,6.50
2023-01-29T00:36:46.490Z,7.72
2023-01-29T00:39:20.434Z,6.30
2023-01-29T00:42:06.045Z,6.82
2023-01-29T00:44:58.315Z,6.78
2023-01-29T00:47:40.325Z,6.20
2023-01-29T00:50:10.040Z,6.88
2023-01-29T00:52:44.336Z,7.60
2023-01-29T00:55:11.593Z,5.40
2023-01-29T00:57:45.341Z,6.70
2023-01-29T01:00:14.556Z,5.03
2023-01-29T01:03:07.493Z,5.88
2023-01-29T01:05:34.878Z,5.53
2023-01-29T01:08:01.987Z,6.07
2023-01-29T01:10:37.321Z,5.20
2023-01-29T01:13:05.949Z,6.35
2023-01-29T01:15:43.343Z,5.90
2023-01-29T01:18:17.355Z,5.13
2023-01-29T01:20:51.486Z,5.38
2023-01-29T01:23:21.604Z,5.45
2023-01-29T01:25:48.691Z,5.22
2023-01-29T01:28:22.326Z,5.07
2023-01-29T01:30:49.473Z,6.32
2023-01-29T01:33:23.491Z,5.68
2023-01-29T01:35:50.612Z,5.88
2023-01-29T01:38:17.707Z,6.47
2023-01-29T01:40:52.315Z,7.07
2023-01-29T01:43:19.423Z,6.65
2023-01-29T01:45:53.544Z,7.82
2023-01-29T01:48:22.820Z,6.63
2023-01-29T01:51:01.329Z,7.40
2023-01-29T01:53:38.728Z,6.88
2023-01-29T01:56:15.324Z,7.78
2023-01-29T01:58:50.558Z,7.10
2023-01-29T02:01:25.897Z,6.35
2023-01-29T02:04:15.649Z,7.53
2023-01-29T02:07:08.535Z,6.90
2023-01-29T02:09:37.813Z,6.40
2023-01-29T02:12:29.333Z,6.45
2023-01-29T02:14:56.511Z,6.07
2023-01-29T02:17:36.361Z,7.07
2023-01-29T02:20:08.671Z,6.68
2023-01-29T02:23:03.647Z,6.88
2023-01-29T02:25:33.921Z,5.50
2023-01-29T02:28:22.341Z,5.32
2023-01-29T02:30:58.624Z,6.05
2023-01-29T02:33:32.513Z,5.90
2023-01-29T02:36:32.105Z,5.43
2023-01-29T02:39:20.486Z,6.25
2023-01-29T02:42:06.325Z,7.50
2023-01-29T02:44:45.500Z,6.03
2023-01-29T02:47:23.901Z,5.28
2023-01-29T02:50:03.496Z,5.10
2023-01-29T02:52:36.637Z,5.47
2023-01-29T02:55:16.366Z,5.43
2023-01-29T02:57:45.136Z,5.75
2023-01-29T03:00:27.482Z,5.40
2023-01-29T03:02:59.130Z,5.65
2023-01-29T03:05:38.341Z,4.88
2023-01-29T03:08:16.324Z,5.68
2023-01-29T03:10:46.602Z,5.40
2023-01-29T03:13:23.383Z,5.93
2023-01-29T03:16:01.335Z,5.30
2023-01-29T03:18:47.343Z,6.65
2023-01-29T03:21:42.321Z,4.68
2023-01-29T03:24:36.353Z,4.93
2023-01-29T03:27:30.339Z,5.03
2023-01-29T03:30:24.494Z,4.72
2023-01-29T03:32:52.419Z,6.85
2023-01-29T03:35:40.548Z,4.90
2023-01-29T03:38:11.795Z,4.95
2023-01-29T03:40:51.347Z,5.32
2023-01-29T03:43:34.338Z,5.18
2023-01-29T03:46:11.471Z,5.65
2023-01-29T03:48:49.018Z,5.43
2023-01-29T03:51:32.508Z,6.07
2023-01-29T03:53:59.588Z,4.95
2023-01-29T03:56:44.384Z,4.88
2023-01-29T03:59:19.437Z,5.13
2023-01-29T04:01:55.512Z,5.05
2023-01-29T04:04:28.759Z,5.05
2023-01-29T04:07:05.351Z,6.00
2023-01-29T04:09:41.352Z,6.20
2023-01-29T04:12:09.747Z,5.70
2023-01-29T04:14:44.362Z,5.03
2023-01-29T04:17:39.343Z,4.88
2023-01-29T04:20:13.487Z,4.82
2023-01-29T04:22:43.292Z,5.75
2023-01-29T04:25:22.651Z,5.30
2023-01-29T04:28:06.466Z,5.35
2023-01-29T04:30:50.427Z,5.00
2023-01-29T04:33:23.708Z,4.93
2023-01-29T04:36:06.517Z,5.38
2023-01-29T04:38:33.638Z,5.35
2023-01-29T04:41:15.417Z,5.65
2023-01-29T04:43:46.294Z,5.97
2023-01-29T04:46:41.347Z,5.82
2023-01-29T04:49:37.356Z,5.15
2023-01-29T04:52:10.276Z,6.25
2023-01-29T04:54:54.429Z,5.80
2023-01-29T04:57:25.560Z,5.07
2023-01-29T05:00:10.400Z,5.15
2023-01-29T05:02:40.055Z,6.07
2023-01-29T05:05:15.385Z,5.05
2023-01-29T05:07:43.580Z,5.60
2023-01-29T05:10:11.489Z,5.47
2023-01-29T05:12:45.353Z,4.90
2023-01-29T05:15:23.854Z,5.45
2023-01-29T05:18:00.464Z,5.45
2023-01-29T05:20:34.515Z,5.53
2023-01-29T05:23:08.551Z,5.85
2023-01-29T05:25:42.415Z,6.43
2023-01-29T05:28:23.379Z,5.93
2023-01-29T05:30:51.891Z,6.60
2023-01-29T05:33:27.406Z,6.90
2023-01-29T05:35:55.294Z,5.63
2023-01-29T05:38:22.920Z,5.05
2023-01-29T05:43:33.384Z,5.22
2023-01-29T05:46:07.390Z,6.53
2023-01-29T05:48:41.386Z,6.70
2023-01-29T05:51:08.484Z,7.18
2023-01-29T05:53:35.571Z,5.93
2023-01-29T05:56:10.521Z,5.72
2023-01-29T05:58:38.023Z,6.88
2023-01-29T06:03:38.380Z,4.95
2023-01-29T06:06:05.576Z,5.50
2023-01-29T06:08:39.387Z,4.65
2023-01-29T06:11:08.411Z,5.32
2023-01-29T06:13:42.429Z,5.57
2023-01-29T06:16:10.153Z,5.72
2023-01-29T06:18:50.562Z,5.50
2023-01-29T06:21:19.933Z,5.93
2023-01-29T06:23:47.229Z,5.53
2023-01-29T06:26:21.425Z,5.57
2023-01-29T06:28:51.932Z,6.40
2023-01-29T06:31:37.762Z,5.45
2023-01-29T06:34:06.569Z,5.25
2023-01-29T06:39:14.529Z,4.35
2023-01-29T06:41:41.657Z,4.95
2023-01-29T06:44:08.748Z,5.20
2023-01-29T06:46:43.408Z,4.47
2023-01-29T06:49:10.513Z,5.13
2023-01-29T06:51:44.554Z,4.78
2023-01-29T06:54:11.715Z,5.95
2023-01-29T06:56:38.787Z,4.25
2023-01-29T06:59:12.384Z,5.55
2023-01-29T07:01:44.360Z,4.88
2023-01-29T07:04:18.556Z,4.30
2023-01-29T07:06:45.669Z,4.80
2023-01-29T07:09:16.105Z,3.92
2023-01-29T07:11:49.392Z,5.53
2023-01-29T07:14:16.561Z,4.05
2023-01-29T07:16:50.558Z,4.22
2023-01-29T07:19:24.485Z,4.20
2023-01-29T07:22:12.552Z,5.22
2023-01-29T07:24:46.557Z,4.32
2023-01-29T07:27:20.405Z,5.13
2023-01-29T07:29:47.483Z,5.28
2023-01-29T07:32:14.626Z,6.07
2023-01-29T07:34:48.446Z,4.78
2023-01-29T07:37:15.544Z,5.25
2023-01-29T07:39:42.675Z,3.95
2023-01-29T07:42:16.391Z,4.90
2023-01-29T07:44:43.636Z,6.40
2023-01-29T07:47:10.725Z,4.75
2023-01-29T07:49:44.415Z,4.45
2023-01-29T07:52:11.483Z,5.80
2023-01-29T07:54:45.604Z,4.20
2023-01-29T07:57:12.732Z,4.93
2023-01-29T07:59:39.814Z,3.53
2023-01-29T08:02:13.485Z,3.70
2023-01-29T08:04:47.406Z,3.63
2023-01-29T08:07:21.399Z,4.03
2023-01-29T08:09:55.564Z,3.72
2023-01-29T08:12:22.759Z,3.58
2023-01-29T08:14:50.545Z,3.85
2023-01-29T08:17:24.418Z,3.92
2023-01-29T08:19:58.308Z,3.92
2023-01-29T08:22:32.590Z,3.90
2023-01-29T08:25:08.182Z,3.63
2023-01-29T08:27:42.415Z,4.22
2023-01-29T08:30:10.404Z,3.42
2023-01-29T08:32:37.537Z,3.75
2023-01-29T08:35:11.430Z,4.20
2023-01-29T08:37:38.552Z,3.17
2023-01-29T08:40:12.700Z,2.75
2023-01-29T08:42:41.407Z,3.20
2023-01-29T08:45:08.889Z,3.35
2023-01-29T08:47:42.572Z,5.07
2023-01-29T08:50:09.983Z,3.42
2023-01-29T08:52:37.108Z,3.60
2023-01-29T08:55:10.422Z,3.45
2023-01-29T08:57:38.124Z,3.35
2023-01-29T09:00:12.453Z,2.83
2023-01-29T09:02:39.661Z,4.45
2023-01-29T09:05:07.235Z,3.20
2023-01-29T09:07:41.421Z,3.63
2023-01-29T09:10:08.804Z,3.70
2023-01-29T09:12:42.429Z,3.47
2023-01-29T09:15:09.881Z,4.03
2023-01-29T09:20:24.412Z,3.58
2023-01-29T09:23:00.452Z,3.30
2023-01-29T09:25:27.682Z,3.42
2023-01-29T09:27:55.043Z,2.40
2023-01-29T09:30:28.728Z,3.03
2023-01-29T09:32:56.069Z,2.58
2023-01-29T09:35:30.431Z,3.35
2023-01-29T09:37:57.602Z,4.43
2023-01-29T09:40:38.762Z,3.13
2023-01-29T09:43:14.091Z,2.88
2023-01-29T09:45:52.459Z,2.90
2023-01-29T09:48:27.708Z,4.45
2023-01-29T09:50:56.002Z,3.58
2023-01-29T09:53:50.433Z,2.47
2023-01-29T09:56:21.126Z,3.20
2023-01-29T09:58:54.586Z,2.55
2023-01-29T10:01:40.659Z,3.97
2023-01-29T10:04:33.450Z,3.17
2023-01-29T10:07:00.541Z,2.67
2023-01-29T10:09:51.429Z,3.03
2023-01-29T10:12:23.468Z,3.35
2023-01-29T10:15:00.435Z,2.90
2023-01-29T10:17:45.602Z,2.58
2023-01-29T10:20:41.597Z,2.10
2023-01-29T10:23:26.876Z,2.33
2023-01-29T10:26:00.448Z,3.33
2023-01-29T10:28:30.382Z,2.40
2023-01-29T10:31:17.702Z,4.20
2023-01-29T10:33:54.505Z,2.63
2023-01-29T10:36:39.590Z,3.15
2023-01-29T10:39:06.778Z,3.78
2023-01-29T10:41:48.439Z,3.20
2023-01-29T10:44:28.553Z,2.33
2023-01-29T10:47:01.596Z,3.17
2023-01-29T10:49:41.436Z,2.60
2023-01-29T10:52:20.135Z,2.35
2023-01-29T10:55:02.612Z,2.22
2023-01-29T10:57:32.431Z,2.53
2023-01-29T11:00:21.660Z,2.85
2023-01-29T11:02:50.237Z,2.20
2023-01-29T11:05:30.446Z,3.35
2023-01-29T11:08:03.656Z,2.90
2023-01-29T11:10:39.460Z,2.22
2023-01-29T11:13:06.760Z,2.45
2023-01-29T11:15:41.463Z,2.42
2023-01-29T11:18:17.126Z,1.83
2023-01-29T11:21:07.637Z,2.15
2023-01-29T11:23:34.855Z,2.80
2023-01-29T11:26:04.735Z,2.20
2023-01-29T11:28:52.454Z,2.45
2023-01-29T11:31:37.590Z,1.85
2023-01-29T11:34:21.425Z,2.85
2023-01-29T11:37:03.460Z,2.67
2023-01-29T11:39:31.711Z,2.88
2023-01-29T11:42:10.628Z,2.67
2023-01-29T11:44:40.729Z,2.60
2023-01-29T11:50:07.620Z,2.60
2023-01-29T11:52:43.531Z,2.75
2023-01-29T11:55:25.608Z,2.95
2023-01-29T11:57:55.153Z,1.63
2023-01-29T12:00:31.613Z,2.20
2023-01-29T12:03:05.585Z,1.90
2023-01-29T12:05:39.578Z,2.33
2023-01-29T12:08:16.907Z,2.65
2023-01-29T12:10:50.569Z,2.17
2023-01-29T12:13:28.109Z,2.80
2023-01-29T12:16:20.610Z,2.83
2023-01-29T12:19:11.074Z,2.80
2023-01-29T12:21:50.605Z,3.17
2023-01-29T12:24:30.245Z,2.83
2023-01-29T12:27:15.722Z,2.55
2023-01-29T12:30:01.130Z,3.25
2023-01-29T12:32:39.586Z,2.45
2023-01-29T12:35:22.045Z,2.03
2023-01-29T12:38:04.535Z,2.80
2023-01-29T12:40:39.116Z,2.10
2023-01-29T12:43:19.930Z,2.70
2023-01-29T12:45:48.822Z,2.58
2023-01-29T12:48:35.535Z,2.03
2023-01-29T12:51:21.084Z,2.58
2023-01-29T12:54:00.722Z,2.10
2023-01-29T12:56:33.542Z,1.98
2023-01-29T12:59:02.413Z,2.20
2023-01-29T13:01:41.596Z,2.33
2023-01-29T13:04:35.129Z,2.03
2023-01-29T13:07:12.100Z,2.83
2023-01-29T13:09:41.050Z,1.65
2023-01-29T13:12:12.124Z,2.30
2023-01-29T13:14:48.952Z,2.72
2023-01-29T13:17:22.447Z,1.92
2023-01-29T13:19:54.754Z,2.65
2023-01-29T13:22:34.591Z,2.22
2023-01-29T13:25:05.558Z,2.47
2023-01-29T13:27:34.362Z,1.67
2023-01-29T13:30:01.752Z,2.33
2023-01-29T13:32:30.709Z,3.05
2023-01-29T13:34:59.008Z,2.67
2023-01-29T13:37:28.576Z,2.72
2023-01-29T13:39:56.715Z,3.17
2023-01-29T13:43:00.366Z,2.40
2023-01-29T13:45:34.988Z,2.47
2023-01-29T13:48:20.656Z,3.35
2023-01-29T13:50:48.359Z,2.83
2023-01-29T13:53:25.900Z,2.85
2023-01-29T13:55:53.153Z,3.42
2023-01-29T13:58:32.266Z,2.45
2023-01-29T14:01:01.465Z,2.67
2023-01-29T14:03:39.940Z,2.63
2023-01-29T14:06:36.023Z,2.78
2023-01-29T14:09:03.229Z,3.20
2023-01-29T14:11:34.873Z,2.70
2023-01-29T14:14:02.155Z,2.97
2023-01-29T14:16:34.908Z,4.18
2023-01-29T14:19:03.232Z,3.20
2023-01-29T14:21:32.032Z,3.20
2023-01-29T14:24:10.264Z,3.25
2023-01-29T14:26:43.827Z,2.88
2023-01-29T14:29:25.487Z,3.75
2023-01-29T14:32:08.848Z,3.03
2023-01-29T14:34:37.413Z,3.30
2023-01-29T14:37:19.041Z,3.58
2023-01-29T14:39:48.412Z,4.00
2023-01-29T14:42:35.746Z,3.80
2023-01-29T14:45:21.681Z,3.72
2023-01-29T14:47:48.980Z,3.97
2023-01-29T14:50:35.002Z,3.33
2023-01-29T14:53:04.157Z,3.95
2023-01-29T14:55:53.131Z,3.10
2023-01-29T14:58:24.551Z,3.55
2023-01-29T15:03:34.564Z,3.20
2023-01-29T15:06:08.524Z,3.20
2023-01-29T15:08:48.563Z,4.22
2023-01-29T15:11:40.517Z,3.42
2023-01-29T15:14:13.637Z,3.00
2023-01-29T15:16:56.658Z,3.90
2023-01-29T15:19:33.048Z,3.00
2023-01-29T15:22:19.499Z,3.40
2023-01-29T15:24:48.278Z,3.55
2023-01-29T15:27:26.658Z,4.13
2023-01-29T15:29:57.425Z,3.85
2023-01-29T15:32:36.534Z,3.83
2023-01-29T15:35:15.035Z,3.60
2023-01-29T15:37:42.519Z,5.47
2023-01-29T15:40:22.816Z,4.40
2023-01-29T15:42:49.947Z,3.90
2023-01-29T15:45:32.759Z,4.43
2023-01-29T15:48:20.678Z,4.65
2023-01-29T15:50:48.503Z,3.47
2023-01-29T15:53:29.655Z,4.97
2023-01-29T15:55:59.986Z,5.03
2023-01-29T15:58:38.574Z,3.38
2023-01-29T16:01:06.372Z,4.30
2023-01-29T16:03:34.350Z,4.63
2023-01-29T16:06:08.633Z,3.95
2023-01-29T16:08:36.407Z,5.50
2023-01-29T16:11:12.736Z,4.72
2023-01-29T16:13:43.376Z,4.82
2023-01-29T16:16:22.619Z,5.63
2023-01-29T16:19:00.857Z,4.95
2023-01-29T16:21:34.661Z,4.28
2023-01-29T16:24:09.689Z,4.35
2023-01-29T16:26:43.504Z,4.95
2023-01-29T16:29:19.722Z,5.25
2023-01-29T16:31:48.017Z,4.65
2023-01-29T16:34:33.529Z,5.53
2023-01-29T16:37:01.686Z,5.07
2023-01-29T16:39:39.676Z,5.43
2023-01-29T16:42:13.416Z,5.95
2023-01-29T16:44:47.616Z,5.95
2023-01-29T16:47:16.796Z,4.50
2023-01-29T16:49:44.889Z,6.03
2023-01-29T16:52:23.636Z,6.30
2023-01-29T16:54:50.832Z,5.72
2023-01-29T16:57:26.734Z,4.88
2023-01-29T17:00:01.581Z,5.18
2023-01-29T17:02:39.614Z,5.75
2023-01-29T17:05:10.979Z,6.15
2023-01-29T17:07:45.587Z,5.38
2023-01-29T17:10:16.755Z,5.57
2023-01-29T17:12:55.658Z,5.30
2023-01-29T17:15:32.045Z,4.28
2023-01-29T17:18:05.767Z,4.22
2023-01-29T17:20:33.031Z,5.45
2023-01-29T17:23:00.239Z,5.15
2023-01-29T17:25:34.685Z,4.45
2023-01-29T17:28:02.384Z,4.95
2023-01-29T17:30:37.780Z,5.32
2023-01-29T17:33:18.293Z,4.75
2023-01-29T17:35:52.859Z,5.60
2023-01-29T17:38:26.099Z,4.75
2023-01-29T17:41:03.624Z,6.30
2023-01-29T17:43:37.548Z,4.47
2023-01-29T17:46:04.900Z,3.65
2023-01-29T17:48:38.698Z,4.15
2023-01-29T17:51:06.034Z,4.20
2023-01-29T17:53:45.339Z,5.22
2023-01-29T17:56:24.633Z,4.18
2023-01-29T17:58:51.931Z,4.32
2023-01-29T18:01:25.836Z,5.10
2023-01-29T18:03:59.632Z,4.35
2023-01-29T18:06:35.664Z,5.32
2023-01-29T18:09:09.573Z,4.93
2023-01-29T18:11:36.709Z,6.10
2023-01-29T18:14:13.591Z,4.03
2023-01-29T18:16:42.276Z,5.03
2023-01-29T18:19:22.718Z,4.88
2023-01-29T18:21:50.886Z,5.18
2023-01-29T18:24:20.359Z,4.90
2023-01-29T18:26:54.607Z,4.53
2023-01-29T18:29:21.761Z,5.20
2023-01-29T18:31:56.667Z,4.60
2023-01-29T18:34:24.018Z,5.40
2023-01-29T18:36:57.658Z,5.63
2023-01-29T18:39:25.313Z,6.15
2023-01-29T18:44:25.634Z,5.05
2023-01-29T18:46:52.875Z,5.38
2023-01-29T18:49:26.648Z,5.88
2023-01-29T18:51:54.192Z,5.82
2023-01-29T18:57:13.435Z,4.85
2023-01-29T18:59:42.839Z,6.90
2023-01-29T19:07:45.568Z,6.07
2023-01-29T19:10:12.976Z,5.55
2023-01-29T19:12:48.653Z,5.60
2023-01-29T19:15:20.517Z,6.03
2023-01-29T19:17:54.789Z,5.63
2023-01-29T19:20:21.983Z,7.05
2023-01-29T19:22:49.201Z,5.88
2023-01-29T19:25:23.764Z,5.15
2023-01-29T19:27:50.955Z,7.38
2023-01-29T19:30:18.287Z,6.43
2023-01-29T19:32:51.743Z,6.82
2023-01-29T19:35:19.199Z,7.00
2023-01-29T19:37:53.857Z,6.25
2023-01-29T19:40:21.099Z,5.13
2023-01-29T19:42:48.488Z,5.88
2023-01-29T19:45:37.344Z,6.57
2023-01-29T19:48:09.937Z,6.10
2023-01-29T19:50:43.712Z,5.47
2023-01-29T19:53:11.085Z,5.22
2023-01-29T19:55:44.702Z,5.55
2023-01-29T19:58:11.818Z,5.00
2023-01-29T20:00:45.705Z,7.43
2023-01-29T20:03:12.786Z,5.13
2023-01-29T20:05:40.395Z,3.22
2023-01-29T20:08:13.635Z,6.40
2023-01-29T20:10:40.727Z,5.30
2023-01-29T20:13:14.951Z,3.85
2023-01-29T20:15:49.146Z,5.45
2023-01-29T20:18:23.678Z,4.60
2023-01-29T20:20:53.051Z,3.78
2023-01-29T20:23:37.219Z,3.70
2023-01-29T20:26:05.603Z,3.95
2023-01-29T20:28:39.786Z,3.50
2023-01-29T20:31:07.962Z,3.25
2023-01-29T20:33:38.207Z,4.15
2023-01-29T20:36:13.709Z,3.78
2023-01-29T20:38:40.964Z,3.33
2023-01-29T20:41:16.936Z,4.22
2023-01-29T20:43:44.908Z,4.00
2023-01-29T20:46:12.550Z,3.17
2023-01-29T20:48:46.876Z,3.53
2023-01-29T20:51:15.635Z,2.95
2023-01-29T20:53:45.062Z,2.97
2023-01-29T20:56:20.596Z,2.65
2023-01-29T20:59:02.964Z,2.22
2023-01-29T21:01:36.834Z,2.53
2023-01-29T21:04:10.598Z,2.58
2023-01-29T21:06:44.863Z,2.28
2023-01-29T21:09:12.005Z,1.88
2023-01-29T21:11:39.086Z,1.90
2023-01-29T21:14:12.737Z,1.48
2023-01-29T21:16:40.092Z,1.80
2023-01-29T21:19:13.787Z,1.70
2023-01-29T21:21:40.932Z,1.25
2023-01-29T21:24:09.237Z,2.03
2023-01-29T21:26:45.782Z,1.40
2023-01-29T21:29:13.297Z,0.90
2023-01-29T21:34:14.301Z,0.85
2023-01-29T21:36:41.405Z,1.08
2023-01-29T21:39:24.801Z,1.00
2023-01-29T21:42:11.048Z,0.75
2023-01-29T21:44:44.824Z,1.08
2023-01-29T21:47:14.916Z,1.15
2023-01-29T21:49:43.145Z,1.13
2023-01-29T21:52:17.806Z,0.82
2023-01-29T21:54:48.718Z,1.13
2023-01-29T21:57:22.709Z,0.88
2023-01-29T21:59:51.156Z,0.75
2023-01-29T22:02:20.752Z,0.60
2023-01-29T22:07:23.022Z,1.05
2023-01-29T22:09:56.688Z,0.70
2023-01-29T22:12:23.955Z,0.80
2023-01-29T22:14:57.956Z,0.80
2023-01-29T22:17:25.128Z,1.60
2023-01-29T22:19:53.454Z,0.98
2023-01-29T22:22:27.692Z,0.82
2023-01-29T22:24:56.433Z,0.90
2023-01-29T22:27:30.836Z,1.40
2023-01-29T22:29:58.082Z,0.73
2023-01-29T22:32:25.244Z,0.85
2023-01-29T22:34:58.729Z,1.20
2023-01-29T22:37:25.988Z,0.88
2023-01-29T22:39:59.792Z,1.27
2023-01-29T22:42:27.818Z,1.20
2023-01-29T22:44:55.091Z,1.58
2023-01-29T22:47:28.714Z,1.00
2023-01-29T22:49:55.804Z,1.15
2023-01-29T22:52:29.676Z,1.30
2023-01-29T22:54:56.834Z,1.45
2023-01-29T22:57:30.776Z,1.20
2023-01-29T22:59:57.987Z,1.65
2023-01-29T23:02:31.743Z,1.90
2023-01-29T23:04:58.882Z,1.98
2023-01-29T23:07:26.004Z,1.95
2023-01-29T23:09:59.756Z,1.83
2023-01-29T23:12:26.946Z,2.58
2023-01-29T23:15:00.823Z,2.58
2023-01-29T23:17:28.341Z,3.40
2023-01-29T23:22:28.777Z,3.63
2023-01-29T23:24:56.408Z,3.97
2023-01-29T23:27:29.796Z,5.05
2023-01-29T23:29:56.932Z,4.38
2023-01-29T23:32:30.799Z,5.10
2023-01-29T23:34:58.000Z,6.03
2023-01-29T23:37:25.333Z,4.50
2023-01-29T23:39:58.823Z,5.63
2023-01-29T23:42:26.077Z,6.28
2023-01-29T23:44:59.809Z,5.55
2023-01-29T23:47:26.934Z,7.82
2023-01-29T23:49:54.083Z,5.63
2023-01-29T23:52:27.724Z,5.75
2023-01-29T23:54:54.809Z,6.93
2023-01-29T23:57:28.833Z,6.72
2023-01-29T23:59:55.942Z,7.95
